KARA

Acadiana Regional Airport

New Iberia, Louisiana, USA
METAR KARA 160553Z AUTO 21003KT 10SM CLR 25/23 A3002 RMK AO2 SLP165 T02500233 10311 20250 403440233 50002
Observed Flight Rules
Aug-16 @ 05:53 UTC (24 minutes ago) Visual Flight Rules
Wind Visibility Clouds
210° at 3 knots 10 miles
  • Clear skies
Temperatures Readings
Current 25°C / 77°F
Dewpoint 23°C / 73°F
Humidity 89%
Altimeter 30.02" Hg
Pressure 1016.5 hPa
Elevation 18
METAR KARA 160553Z AUTO 21003KT 10SM CLR 25/23 A3002 RMK AO2 SLP165 T02500233 10311 20250 403440233 50002
Observed Flight Rules
Aug-16 @ 05:53 UTC
(24 minutes ago)
VFR
Wind Visibility
210° at 3 knots 10 miles
Clouds
  • Clear skies
Temperature Dewpoint
25°C / 77°F 23°C / 73°F
Humidity Altimeter Pressure
89% 30.02" Hg 1016.5 hPa